sensor_id;sensor_type;location;lat;lon;timestamp;P1;durP1;ratioP1;P2;durP2;ratioP2
35646;SDS011;28680;45.642;13.756;2022-08-18T00:00:27;12.40;;;6.78;;
35646;SDS011;28680;45.642;13.756;2022-08-18T00:03:00;12.93;;;6.85;;
35646;SDS011;28680;45.642;13.756;2022-08-18T00:05:30;10.43;;;6.22;;
35646;SDS011;28680;45.642;13.756;2022-08-18T00:07:56;13.00;;;6.05;;
35646;SDS011;28680;45.642;13.756;2022-08-18T00:10:24;11.80;;;6.60;;
35646;SDS011;28680;45.642;13.756;2022-08-18T00:12:51;12.68;;;6.60;;
35646;SDS011;28680;45.642;13.756;2022-08-18T00:15:17;12.85;;;6.57;;
35646;SDS011;28680;45.642;13.756;2022-08-18T00:17:44;14.25;;;6.85;;
35646;SDS011;28680;45.642;13.756;2022-08-18T00:20:18;12.15;;;6.18;;
35646;SDS011;28680;45.642;13.756;2022-08-18T00:22:47;11.38;;;6.10;;
35646;SDS011;28680;45.642;13.756;2022-08-18T00:25:14;12.35;;;6.82;;
35646;SDS011;28680;45.642;13.756;2022-08-18T00:27:42;14.18;;;7.07;;
35646;SDS011;28680;45.642;13.756;2022-08-18T00:30:10;13.15;;;6.60;;
35646;SDS011;28680;45.642;13.756;2022-08-18T00:32:42;12.00;;;6.72;;
35646;SDS011;28680;45.642;13.756;2022-08-18T00:35:19;12.77;;;6.78;;
35646;SDS011;28680;45.642;13.756;2022-08-18T00:37:53;13.43;;;7.32;;
35646;SDS011;28680;45.642;13.756;2022-08-18T00:40:22;16.52;;;6.50;;
35646;SDS011;28680;45.642;13.756;2022-08-18T00:45:30;11.20;;;6.78;;
35646;SDS011;28680;45.642;13.756;2022-08-18T00:48:00;15.25;;;6.63;;
35646;SDS011;28680;45.642;13.756;2022-08-18T00:50:32;12.88;;;6.90;;
35646;SDS011;28680;45.642;13.756;2022-08-18T00:53:20;11.88;;;7.68;;
35646;SDS011;28680;45.642;13.756;2022-08-18T00:56:15;16.55;;;8.10;;
35646;SDS011;28680;45.642;13.756;2022-08-18T00:58:57;16.75;;;7.85;;
35646;SDS011;28680;45.642;13.756;2022-08-18T01:01:35;16.83;;;8.07;;
35646;SDS011;28680;45.642;13.756;2022-08-18T01:04:07;18.23;;;7.85;;
35646;SDS011;28680;45.642;13.756;2022-08-18T01:07:01;17.65;;;8.35;;
35646;SDS011;28680;45.642;13.756;2022-08-18T01:09:33;15.93;;;7.50;;
35646;SDS011;28680;45.642;13.756;2022-08-18T01:11:59;16.30;;;8.07;;
35646;SDS011;28680;45.642;13.756;2022-08-18T01:14:25;16.02;;;8.27;;
35646;SDS011;28680;45.642;13.756;2022-08-18T01:16:51;18.25;;;8.55;;
35646;SDS011;28680;45.642;13.756;2022-08-18T01:19:36;26.20;;;8.30;;
35646;SDS011;28680;45.642;13.756;2022-08-18T01:25:15;13.43;;;7.57;;
35646;SDS011;28680;45.642;13.756;2022-08-18T01:40:56;15.63;;;7.47;;
35646;SDS011;28680;45.642;13.756;2022-08-18T01:43:23;18.23;;;7.50;;
35646;SDS011;28680;45.642;13.756;2022-08-18T01:45:50;14.52;;;8.30;;
35646;SDS011;28680;45.642;13.756;2022-08-18T01:48:16;19.25;;;9.25;;
35646;SDS011;28680;45.642;13.756;2022-08-18T01:50:42;14.35;;;8.10;;
35646;SDS011;28680;45.642;13.756;2022-08-18T01:53:09;13.25;;;7.53;;
35646;SDS011;28680;45.642;13.756;2022-08-18T01:55:36;14.10;;;7.90;;
35646;SDS011;28680;45.642;13.756;2022-08-18T01:58:08;21.70;;;8.10;;
35646;SDS011;28680;45.642;13.756;2022-08-18T02:00:34;14.10;;;7.00;;
35646;SDS011;28680;45.642;13.756;2022-08-18T02:03:01;11.95;;;6.72;;
35646;SDS011;28680;45.642;13.756;2022-08-18T02:05:33;13.50;;;6.07;;
35646;SDS011;28680;45.642;13.756;2022-08-18T02:08:07;10.68;;;5.63;;
35646;SDS011;28680;45.642;13.756;2022-08-18T02:10:36;13.32;;;5.90;;
35646;SDS011;28680;45.642;13.756;2022-08-18T02:13:03;12.35;;;6.43;;
35646;SDS011;28680;45.642;13.756;2022-08-18T02:15:33;12.23;;;6.15;;
35646;SDS011;28680;45.642;13.756;2022-08-18T02:17:59;13.05;;;5.70;;
35646;SDS011;28680;45.642;13.756;2022-08-18T02:20:25;14.10;;;5.80;;
35646;SDS011;28680;45.642;13.756;2022-08-18T02:22:51;10.45;;;5.45;;
35646;SDS011;28680;45.642;13.756;2022-08-18T02:25:18;11.35;;;5.43;;
35646;SDS011;28680;45.642;13.756;2022-08-18T02:27:44;12.20;;;5.32;;
35646;SDS011;28680;45.642;13.756;2022-08-18T02:30:12;10.70;;;4.82;;
35646;SDS011;28680;45.642;13.756;2022-08-18T02:32:41;10.40;;;4.90;;
35646;SDS011;28680;45.642;13.756;2022-08-18T02:35:07;12.43;;;5.75;;
35646;SDS011;28680;45.642;13.756;2022-08-18T02:37:35;11.20;;;4.82;;
35646;SDS011;28680;45.642;13.756;2022-08-18T02:40:01;11.88;;;5.05;;
35646;SDS011;28680;45.642;13.756;2022-08-18T02:42:29;8.38;;;5.13;;
35646;SDS011;28680;45.642;13.756;2022-08-18T02:44:55;9.23;;;5.22;;
35646;SDS011;28680;45.642;13.756;2022-08-18T02:47:21;10.23;;;5.25;;
35646;SDS011;28680;45.642;13.756;2022-08-18T02:49:47;11.15;;;5.10;;
35646;SDS011;28680;45.642;13.756;2022-08-18T02:52:13;11.25;;;5.15;;
35646;SDS011;28680;45.642;13.756;2022-08-18T02:54:39;10.50;;;5.45;;
35646;SDS011;28680;45.642;13.756;2022-08-18T02:57:09;12.65;;;5.10;;
35646;SDS011;28680;45.642;13.756;2022-08-18T02:59:37;11.32;;;6.07;;
35646;SDS011;28680;45.642;13.756;2022-08-18T03:02:05;11.30;;;5.50;;
35646;SDS011;28680;45.642;13.756;2022-08-18T03:04:33;12.93;;;5.80;;
35646;SDS011;28680;45.642;13.756;2022-08-18T03:07:00;9.90;;;5.80;;
35646;SDS011;28680;45.642;13.756;2022-08-18T03:09:29;10.38;;;5.60;;
35646;SDS011;28680;45.642;13.756;2022-08-18T03:11:56;10.82;;;5.50;;
35646;SDS011;28680;45.642;13.756;2022-08-18T03:14:23;10.57;;;5.10;;
35646;SDS011;28680;45.642;13.756;2022-08-18T03:16:49;8.55;;;5.22;;
35646;SDS011;28680;45.642;13.756;2022-08-18T03:19:15;8.93;;;5.25;;
35646;SDS011;28680;45.642;13.756;2022-08-18T03:21:45;9.50;;;5.25;;
35646;SDS011;28680;45.642;13.756;2022-08-18T03:24:12;13.05;;;5.47;;
35646;SDS011;28680;45.642;13.756;2022-08-18T03:26:39;10.13;;;5.20;;
35646;SDS011;28680;45.642;13.756;2022-08-18T03:29:08;9.48;;;5.05;;
35646;SDS011;28680;45.642;13.756;2022-08-18T03:31:35;8.38;;;4.93;;
35646;SDS011;28680;45.642;13.756;2022-08-18T03:34:02;11.20;;;5.10;;
35646;SDS011;28680;45.642;13.756;2022-08-18T03:36:32;11.25;;;5.63;;
35646;SDS011;28680;45.642;13.756;2022-08-18T03:39:02;8.20;;;4.78;;
35646;SDS011;28680;45.642;13.756;2022-08-18T03:41:31;12.65;;;5.30;;
35646;SDS011;28680;45.642;13.756;2022-08-18T03:44:03;12.80;;;5.40;;
35646;SDS011;28680;45.642;13.756;2022-08-18T03:46:30;8.07;;;4.95;;
35646;SDS011;28680;45.642;13.756;2022-08-18T03:48:57;11.88;;;5.55;;
35646;SDS011;28680;45.642;13.756;2022-08-18T03:51:26;12.68;;;5.07;;
35646;SDS011;28680;45.642;13.756;2022-08-18T03:53:56;13.63;;;5.40;;
35646;SDS011;28680;45.642;13.756;2022-08-18T03:56:25;8.90;;;5.00;;
35646;SDS011;28680;45.642;13.756;2022-08-18T03:58:58;8.75;;;4.97;;
35646;SDS011;28680;45.642;13.756;2022-08-18T04:01:30;13.35;;;5.00;;
35646;SDS011;28680;45.642;13.756;2022-08-18T04:04:00;8.73;;;5.10;;
35646;SDS011;28680;45.642;13.756;2022-08-18T04:06:34;9.80;;;4.97;;
35646;SDS011;28680;45.642;13.756;2022-08-18T04:09:18;6.63;;;3.92;;
35646;SDS011;28680;45.642;13.756;2022-08-18T04:11:46;9.90;;;4.43;;
35646;SDS011;28680;45.642;13.756;2022-08-18T04:14:13;9.98;;;5.32;;
35646;SDS011;28680;45.642;13.756;2022-08-18T04:16:42;9.48;;;4.88;;
35646;SDS011;28680;45.642;13.756;2022-08-18T04:19:09;14.57;;;4.88;;
35646;SDS011;28680;45.642;13.756;2022-08-18T04:21:38;11.45;;;4.78;;
35646;SDS011;28680;45.642;13.756;2022-08-18T04:24:07;11.93;;;4.93;;
35646;SDS011;28680;45.642;13.756;2022-08-18T04:26:36;9.65;;;5.22;;
35646;SDS011;28680;45.642;13.756;2022-08-18T04:29:10;8.50;;;4.38;;
35646;SDS011;28680;45.642;13.756;2022-08-18T04:31:38;11.18;;;4.93;;
35646;SDS011;28680;45.642;13.756;2022-08-18T04:34:05;7.82;;;4.60;;
35646;SDS011;28680;45.642;13.756;2022-08-18T04:36:32;11.02;;;4.80;;
35646;SDS011;28680;45.642;13.756;2022-08-18T04:39:00;7.93;;;4.22;;
35646;SDS011;28680;45.642;13.756;2022-08-18T04:41:31;9.13;;;4.55;;
35646;SDS011;28680;45.642;13.756;2022-08-18T04:43:57;9.77;;;4.38;;
35646;SDS011;28680;45.642;13.756;2022-08-18T04:46:27;11.55;;;4.63;;
35646;SDS011;28680;45.642;13.756;2022-08-18T04:48:57;9.93;;;4.15;;
35646;SDS011;28680;45.642;13.756;2022-08-18T04:51:23;13.50;;;4.45;;
35646;SDS011;28680;45.642;13.756;2022-08-18T04:53:52;9.63;;;4.60;;
35646;SDS011;28680;45.642;13.756;2022-08-18T04:56:24;8.20;;;4.72;;
35646;SDS011;28680;45.642;13.756;2022-08-18T05:01:37;11.32;;;4.65;;
35646;SDS011;28680;45.642;13.756;2022-08-18T05:04:11;12.05;;;5.40;;
35646;SDS011;28680;45.642;13.756;2022-08-18T05:06:39;7.13;;;3.85;;
35646;SDS011;28680;45.642;13.756;2022-08-18T05:09:07;8.15;;;4.05;;
35646;SDS011;28680;45.642;13.756;2022-08-18T05:11:36;9.15;;;4.75;;
35646;SDS011;28680;45.642;13.756;2022-08-18T05:21:14;9.02;;;4.53;;
35646;SDS011;28680;45.642;13.756;2022-08-18T05:23:43;8.35;;;4.25;;
35646;SDS011;28680;45.642;13.756;2022-08-18T05:26:12;11.43;;;4.50;;
35646;SDS011;28680;45.642;13.756;2022-08-18T05:28:41;10.80;;;4.22;;
35646;SDS011;28680;45.642;13.756;2022-08-18T05:31:09;9.52;;;4.28;;
35646;SDS011;28680;45.642;13.756;2022-08-18T05:33:43;11.55;;;4.65;;
35646;SDS011;28680;45.642;13.756;2022-08-18T05:44:02;8.32;;;4.13;;
35646;SDS011;28680;45.642;13.756;2022-08-18T05:46:31;7.28;;;4.30;;
35646;SDS011;28680;45.642;13.756;2022-08-18T05:49:36;7.38;;;3.80;;
35646;SDS011;28680;45.642;13.756;2022-08-18T05:56:41;8.77;;;4.70;;
35646;SDS011;28680;45.642;13.756;2022-08-18T05:59:21;7.72;;;4.80;;
35646;SDS011;28680;45.642;13.756;2022-08-18T06:04:49;9.82;;;4.80;;
35646;SDS011;28680;45.642;13.756;2022-08-18T06:07:37;8.93;;;4.95;;
35646;SDS011;28680;45.642;13.756;2022-08-18T06:10:18;11.02;;;5.07;;
35646;SDS011;28680;45.642;13.756;2022-08-18T06:12:48;13.25;;;6.95;;
35646;SDS011;28680;45.642;13.756;2022-08-18T06:15:46;11.48;;;6.45;;
35646;SDS011;28680;45.642;13.756;2022-08-18T06:24:42;9.73;;;5.30;;
35646;SDS011;28680;45.642;13.756;2022-08-18T06:27:19;7.50;;;5.07;;
35646;SDS011;28680;45.642;13.756;2022-08-18T06:30:23;12.88;;;4.70;;
35646;SDS011;28680;45.642;13.756;2022-08-18T06:42:02;9.40;;;5.47;;
35646;SDS011;28680;45.642;13.756;2022-08-18T06:44:33;11.65;;;5.25;;
35646;SDS011;28680;45.642;13.756;2022-08-18T06:52:39;12.23;;;5.15;;
35646;SDS011;28680;45.642;13.756;2022-08-18T06:55:31;10.48;;;4.40;;
35646;SDS011;28680;45.642;13.756;2022-08-18T06:58:03;11.27;;;4.72;;
35646;SDS011;28680;45.642;13.756;2022-08-18T07:00:38;9.25;;;4.75;;
35646;SDS011;28680;45.642;13.756;2022-08-18T07:06:04;9.40;;;4.78;;
35646;SDS011;28680;45.642;13.756;2022-08-18T07:08:44;13.25;;;5.13;;
35646;SDS011;28680;45.642;13.756;2022-08-18T07:16:49;12.07;;;5.05;;
35646;SDS011;28680;45.642;13.756;2022-08-18T07:19:32;9.55;;;4.53;;
35646;SDS011;28680;45.642;13.756;2022-08-18T07:22:09;8.18;;;4.07;;
35646;SDS011;28680;45.642;13.756;2022-08-18T07:24:48;9.27;;;4.28;;
35646;SDS011;28680;45.642;13.756;2022-08-18T07:27:19;8.38;;;4.07;;
35646;SDS011;28680;45.642;13.756;2022-08-18T07:35:27;14.40;;;5.00;;
35646;SDS011;28680;45.642;13.756;2022-08-18T07:38:09;11.80;;;4.03;;
35646;SDS011;28680;45.642;13.756;2022-08-18T07:49:21;9.57;;;4.00;;
35646;SDS011;28680;45.642;13.756;2022-08-18T08:08:12;12.23;;;3.83;;
35646;SDS011;28680;45.642;13.756;2022-08-18T08:29:02;5.32;;;3.40;;
35646;SDS011;28680;45.642;13.756;2022-08-18T08:50:13;7.47;;;3.97;;
35646;SDS011;28680;45.642;13.756;2022-08-18T08:53:06;5.38;;;3.67;;
35646;SDS011;28680;45.642;13.756;2022-08-18T08:55:56;9.68;;;4.07;;
35646;SDS011;28680;45.642;13.756;2022-08-18T08:58:36;7.05;;;3.90;;
35646;SDS011;28680;45.642;13.756;2022-08-18T09:01:21;8.68;;;4.00;;
35646;SDS011;28680;45.642;13.756;2022-08-18T09:10:08;10.43;;;3.90;;
35646;SDS011;28680;45.642;13.756;2022-08-18T09:21:56;7.10;;;3.72;;
35646;SDS011;28680;45.642;13.756;2022-08-18T09:25:00;7.90;;;3.80;;
35646;SDS011;28680;45.642;13.756;2022-08-18T09:27:38;9.60;;;4.05;;
35646;SDS011;28680;45.642;13.756;2022-08-18T09:30:07;9.90;;;4.10;;
35646;SDS011;28680;45.642;13.756;2022-08-18T09:42:21;14.00;;;4.90;;
35646;SDS011;28680;45.642;13.756;2022-08-18T09:45:09;5.88;;;3.45;;
35646;SDS011;28680;45.642;13.756;2022-08-18T09:51:14;11.75;;;4.35;;
35646;SDS011;28680;45.642;13.756;2022-08-18T09:54:06;5.82;;;4.05;;
35646;SDS011;28680;45.642;13.756;2022-08-18T10:02:03;8.88;;;4.90;;
35646;SDS011;28680;45.642;13.756;2022-08-18T10:13:56;5.28;;;4.10;;
35646;SDS011;28680;45.642;13.756;2022-08-18T10:22:45;5.90;;;3.80;;
35646;SDS011;28680;45.642;13.756;2022-08-18T10:25:28;8.93;;;4.05;;
35646;SDS011;28680;45.642;13.756;2022-08-18T10:31:19;7.03;;;3.20;;
35646;SDS011;28680;45.642;13.756;2022-08-18T10:39:13;7.72;;;3.03;;
35646;SDS011;28680;45.642;13.756;2022-08-18T10:42:30;6.47;;;2.90;;
35646;SDS011;28680;45.642;13.756;2022-08-18T10:53:29;6.60;;;3.03;;
35646;SDS011;28680;45.642;13.756;2022-08-18T11:00:37;9.15;;;2.85;;
35646;SDS011;28680;45.642;13.756;2022-08-18T11:06:25;7.53;;;3.30;;
35646;SDS011;28680;45.642;13.756;2022-08-18T11:08:59;6.85;;;2.90;;
35646;SDS011;28680;45.642;13.756;2022-08-18T11:11:38;9.95;;;3.08;;
35646;SDS011;28680;45.642;13.756;2022-08-18T11:14:18;10.32;;;3.80;;
35646;SDS011;28680;45.642;13.756;2022-08-18T11:20:20;7.22;;;3.20;;
35646;SDS011;28680;45.642;13.756;2022-08-18T11:22:57;8.35;;;3.38;;
35646;SDS011;28680;45.642;13.756;2022-08-18T11:25:28;9.82;;;4.15;;
35646;SDS011;28680;45.642;13.756;2022-08-18T11:28:00;10.27;;;3.33;;
35646;SDS011;28680;45.642;13.756;2022-08-18T11:30:29;6.47;;;3.70;;
35646;SDS011;28680;45.642;13.756;2022-08-18T11:33:01;11.30;;;3.55;;
35646;SDS011;28680;45.642;13.756;2022-08-18T11:35:43;7.45;;;3.45;;
35646;SDS011;28680;45.642;13.756;2022-08-18T11:38:13;8.70;;;3.55;;
35646;SDS011;28680;45.642;13.756;2022-08-18T11:40:50;10.20;;;3.42;;
35646;SDS011;28680;45.642;13.756;2022-08-18T11:43:40;9.60;;;3.78;;
35646;SDS011;28680;45.642;13.756;2022-08-18T11:46:11;13.93;;;3.80;;
35646;SDS011;28680;45.642;13.756;2022-08-18T11:48:43;14.07;;;3.88;;
35646;SDS011;28680;45.642;13.756;2022-08-18T11:54:47;12.93;;;4.53;;
35646;SDS011;28680;45.642;13.756;2022-08-18T12:07:15;96.47;;;15.48;;
35646;SDS011;28680;45.642;13.756;2022-08-18T12:13:22;49.15;;;7.97;;
35646;SDS011;28680;45.642;13.756;2022-08-18T12:16:06;42.42;;;8.23;;
35646;SDS011;28680;45.642;13.756;2022-08-18T12:18:37;31.75;;;7.00;;
35646;SDS011;28680;45.642;13.756;2022-08-18T12:21:04;36.40;;;6.93;;
35646;SDS011;28680;45.642;13.756;2022-08-18T12:23:31;30.42;;;5.50;;
35646;SDS011;28680;45.642;13.756;2022-08-18T12:25:58;38.63;;;9.63;;
35646;SDS011;28680;45.642;13.756;2022-08-18T12:28:24;39.28;;;7.82;;
35646;SDS011;28680;45.642;13.756;2022-08-18T12:30:51;40.45;;;7.75;;
35646;SDS011;28680;45.642;13.756;2022-08-18T12:33:20;27.50;;;5.65;;
35646;SDS011;28680;45.642;13.756;2022-08-18T12:35:46;26.73;;;5.85;;
35646;SDS011;28680;45.642;13.756;2022-08-18T12:38:14;27.90;;;6.03;;
35646;SDS011;28680;45.642;13.756;2022-08-18T12:40:42;21.52;;;4.68;;
35646;SDS011;28680;45.642;13.756;2022-08-18T12:43:08;18.48;;;4.80;;
35646;SDS011;28680;45.642;13.756;2022-08-18T12:45:34;11.38;;;4.18;;
35646;SDS011;28680;45.642;13.756;2022-08-18T12:48:00;13.00;;;3.10;;
35646;SDS011;28680;45.642;13.756;2022-08-18T12:50:26;10.90;;;2.60;;
35646;SDS011;28680;45.642;13.756;2022-08-18T12:53:02;13.40;;;3.40;;
35646;SDS011;28680;45.642;13.756;2022-08-18T12:59:04;14.45;;;3.55;;
35646;SDS011;28680;45.642;13.756;2022-08-18T13:01:32;12.90;;;3.70;;
35646;SDS011;28680;45.642;13.756;2022-08-18T13:03:59;11.20;;;2.58;;
35646;SDS011;28680;45.642;13.756;2022-08-18T13:06:26;10.68;;;2.70;;
35646;SDS011;28680;45.642;13.756;2022-08-18T13:08:55;12.73;;;3.08;;
35646;SDS011;28680;45.642;13.756;2022-08-18T13:11:21;11.48;;;3.30;;
35646;SDS011;28680;45.642;13.756;2022-08-18T13:13:48;13.85;;;3.13;;
35646;SDS011;28680;45.642;13.756;2022-08-18T13:16:38;11.50;;;2.75;;
35646;SDS011;28680;45.642;13.756;2022-08-18T13:19:11;14.05;;;3.15;;
35646;SDS011;28680;45.642;13.756;2022-08-18T13:21:41;8.30;;;2.53;;
35646;SDS011;28680;45.642;13.756;2022-08-18T13:27:32;10.63;;;3.00;;
35646;SDS011;28680;45.642;13.756;2022-08-18T13:30:02;9.88;;;2.50;;
35646;SDS011;28680;45.642;13.756;2022-08-18T13:33:28;11.05;;;2.85;;
35646;SDS011;28680;45.642;13.756;2022-08-18T13:36:43;7.20;;;2.28;;
35646;SDS011;28680;45.642;13.756;2022-08-18T14:10:04;7.78;;;2.50;;
35646;SDS011;28680;45.642;13.756;2022-08-18T14:22:29;7.57;;;2.30;;
35646;SDS011;28680;45.642;13.756;2022-08-18T14:56:07;10.52;;;2.65;;
35646;SDS011;28680;45.642;13.756;2022-08-18T14:58:36;10.35;;;2.83;;
35646;SDS011;28680;45.642;13.756;2022-08-18T15:01:09;8.02;;;2.80;;
35646;SDS011;28680;45.642;13.756;2022-08-18T15:03:37;11.60;;;3.22;;
35646;SDS011;28680;45.642;13.756;2022-08-18T15:06:05;7.97;;;2.92;;
35646;SDS011;28680;45.642;13.756;2022-08-18T15:08:32;11.27;;;3.33;;
35646;SDS011;28680;45.642;13.756;2022-08-18T15:11:00;9.57;;;3.00;;
35646;SDS011;28680;45.642;13.756;2022-08-18T15:13:27;7.13;;;2.97;;
35646;SDS011;28680;45.642;13.756;2022-08-18T15:15:53;6.47;;;2.67;;
35646;SDS011;28680;45.642;13.756;2022-08-18T15:21:36;6.97;;;2.80;;
35646;SDS011;28680;45.642;13.756;2022-08-18T15:24:20;12.85;;;3.58;;
35646;SDS011;28680;45.642;13.756;2022-08-18T15:27:05;8.18;;;3.17;;
35646;SDS011;28680;45.642;13.756;2022-08-18T15:29:32;6.32;;;2.70;;
35646;SDS011;28680;45.642;13.756;2022-08-18T15:31:58;10.85;;;3.33;;
35646;SDS011;28680;45.642;13.756;2022-08-18T15:34:26;14.65;;;3.50;;
35646;SDS011;28680;45.642;13.756;2022-08-18T15:37:00;14.70;;;3.42;;
35646;SDS011;28680;45.642;13.756;2022-08-18T15:42:48;12.32;;;3.05;;
35646;SDS011;28680;45.642;13.756;2022-08-18T15:49:19;11.80;;;3.60;;
35646;SDS011;28680;45.642;13.756;2022-08-18T15:51:54;16.55;;;3.85;;
35646;SDS011;28680;45.642;13.756;2022-08-18T15:54:36;13.05;;;3.63;;
35646;SDS011;28680;45.642;13.756;2022-08-18T15:57:02;12.95;;;3.55;;
35646;SDS011;28680;45.642;13.756;2022-08-18T15:59:28;12.93;;;3.67;;
35646;SDS011;28680;45.642;13.756;2022-08-18T16:53:03;11.68;;;3.10;;
35646;SDS011;28680;45.642;13.756;2022-08-18T16:56:31;6.75;;;2.75;;
35646;SDS011;28680;45.642;13.756;2022-08-18T17:00:04;10.43;;;3.17;;
35646;SDS011;28680;45.642;13.756;2022-08-18T20:48:51;7.43;;;2.70;;
35646;SDS011;28680;45.642;13.756;2022-08-18T22:32:33;7.97;;;2.67;;
35646;SDS011;28680;45.642;13.756;2022-08-18T22:35:05;10.30;;;2.88;;
35646;SDS011;28680;45.642;13.756;2022-08-18T22:37:36;7.55;;;2.63;;
35646;SDS011;28680;45.642;13.756;2022-08-18T22:40:14;9.60;;;2.50;;
35646;SDS011;28680;45.642;13.756;2022-08-18T22:42:40;10.15;;;2.83;;
35646;SDS011;28680;45.642;13.756;2022-08-18T22:45:13;17.33;;;3.40;;
35646;SDS011;28680;45.642;13.756;2022-08-18T22:47:39;27.77;;;6.43;;
35646;SDS011;28680;45.642;13.756;2022-08-18T22:50:06;24.98;;;5.03;;
35646;SDS011;28680;45.642;13.756;2022-08-18T22:58:10;19.38;;;4.22;;
